Flight Track Log - Related Links

Times and Time Zones

All times are in EDT time to prevent confusion due to time zone crossing. See the EJA839 flight status page for this flight to view local times or setup timezone preferences in your user account.

Time Position Orientation Groundspeed Altitude Reporting Facility
EDT Latitude Longitude Course Direction KTS MPH feet Rate Location/Type
Sat 05:03:01 PM 41.5556 -71.3722 244° Southwest 191 220 2,600  Level Boston Center
Sat 05:04:02 PM 41.5008 -71.3342 152° Southeast 221 254 4,400 2,207 Climbing Boston Center
Sat 05:04:28 PM 41.4758 -71.3292 171° South 245 282 5,800 2,791 Climbing Boston Center
Sat 05:05:28 PM 41.4111 -71.3136 170° South 257 296 8,400 2,050 Climbing Boston Center
Sat 05:06:28 PM 41.3294 -71.2900 168° South 291 335 9,900 2,100 Climbing Boston Center
Sat 05:07:00 PM 41.2177 -71.2569 171° South  Level FlightAware Approximate
Sat 05:07:28 PM 41.2314 -71.2669 170° South 323 372 12,600  Level Boston Center
Sat 05:08:00 PM 41.1431 -71.2982 244° Southwest  Level FlightAware Approximate
Sat 05:08:28 PM 41.1569 -71.3153 206° Southwest 333 383 15,000  Level Boston Center
Sat 05:09:28 PM 41.1058 -71.4347 240° Southwest 326 375 17,500 1,900 Climbing Boston Center
Sat 05:10:28 PM 41.0733 -71.5261 245° Southwest 338 389 18,800 1,750 Climbing Boston Center
Sat 05:11:28 PM 41.0242 -71.6506 242° Southwest 346 398 21,000 2,100 Climbing Boston Center
Sat 05:12:28 PM 40.9792 -71.7858 246° West 353 406 23,000 1,800 Climbing Boston Center
Sat 05:13:28 PM 40.9089 -71.8853 227° Southwest 367 422 24,600 1,550 Climbing Boston Center
Sat 05:14:28 PM 40.8364 -71.9683 221° Southwest 373 429 26,100 1,400 Climbing Boston Center
Sat 05:15:28 PM 40.7597 -72.0731 226° Southwest 384 442 27,400 1,350 Climbing Boston Center
Sat 05:16:28 PM 40.6703 -72.1856 224° Southwest 397 457 28,800 1,350 Climbing Boston Center
Sat 05:17:28 PM 40.5936 -72.2925 227° Southwest 404 465 30,100 1,250 Climbing Boston Center
Sat 05:18:28 PM 40.5122 -72.3908 223° Southwest 404 465 31,300 1,250 Climbing Boston Center
Sat 05:19:28 PM 40.4311 -72.4947 224° Southwest 399 459 32,600 1,100 Climbing Boston Center
Sat 05:20:28 PM 40.3558 -72.5953 226° Southwest 399 459 33,500 909 Climbing Boston Center
Sat 05:21:40 PM 40.2808 -72.6958 226° Southwest 399 459 34,600 1,045 Climbing Boston Center
Sat 05:22:40 PM 40.1992 -72.8069 226° Southwest 394 453 35,800 435 Climbing Boston Center
Sat 05:24:53 PM 40.0156 -73.0450 225° Southwest 401 461 36,000 63 Climbing Washington Center
Sat 05:25:51 PM 39.9325 -73.1536 225° Southwest 413 475 36,000  Level Washington Center
Sat 05:26:52 PM 39.8469 -73.2592 223° Southwest 424 488 36,000  Level Washington Center
Sat 05:27:53 PM 39.7656 -73.3644 225° Southwest 424 488 36,000 -443 Level Washington Center
Sat 05:28:54 PM 39.6822 -73.4694 224° Southwest 424 488 35,100 -1,220 Descending Washington Center
Sat 05:29:51 PM 39.6006 -73.5717 224° Southwest 424 488 33,600 -1,424 Descending Washington Center
Sat 05:30:52 PM 39.5125 -73.6708 221° Southwest 419 482 32,300 -787 Descending Washington Center
Sat 05:31:53 PM 39.4244 -73.7700 221° Southwest 419 482 32,000 -151 Descending Washington Center
Sat 05:32:51 PM 39.3383 -73.8689 222° Southwest 419 482 32,000  Level Washington Center
Sat 05:33:53 PM 39.2461 -73.9675 220° Southwest 426 490 32,000  Level Washington Center
Sat 05:34:51 PM 39.1578 -74.0658 221° Southwest 426 490 32,000 -252 Level Washington Center
Sat 05:35:52 PM 39.0694 -74.1639 221° Southwest 426 490 31,500 -984 Descending Washington Center
Sat 05:36:53 PM 38.9808 -74.2644 221° Southwest 426 490 30,000 -1,412 Descending Washington Center
Sat 05:37:51 PM 38.9044 -74.3433 219° Southwest 426 490 28,700 -1,475 Descending Washington Center
Sat 05:38:51 PM 38.8158 -74.4408 221° Southwest 426 490 27,100 -1,240 Descending Washington Center
Sat 05:39:52 PM 38.7314 -74.5353 221° Southwest 426 490 26,200 -541 Descending Washington Center
Sat 05:40:53 PM 38.6447 -74.6322 221° Southwest 426 490 26,000 -99 Descending Washington Center
Sat 05:41:53 PM 38.5619 -74.7342 224° Southwest 426 490 26,000  Level Washington Center
Sat 05:42:51 PM 38.5147 -74.8567 244° Southwest 410 472 26,000  Level Washington Center
Sat 05:43:51 PM 38.4656 -74.9844 244° Southwest 405 466 26,000  Level Washington Center
Sat 05:44:52 PM 38.4139 -75.1067 242° Southwest 399 459 26,000  Level Washington Center
Sat 05:45:53 PM 38.3644 -75.2369 244° Southwest 399 459 26,000  Level Washington Center
Sat 05:46:54 PM 38.3167 -75.3589 243° Southwest 394 453 26,000 -356 Level Washington Center
Sat 05:47:51 PM 38.2647 -75.4833 242° Southwest 394 453 25,300  Descending Washington Center
Sat 05:48:51 PM 38.2086 -75.6156 242° Southwest 389 448 26,000 -1,686 Climbing Washington Center
Sat 05:49:52 PM 38.1564 -75.7369 241° Southwest 389 448 21,900 -2,852 Descending Washington Center
Sat 05:50:53 PM 38.1103 -75.8531 243° Southwest 384 442 20,200 -1,664 Descending Washington Center
Sat 05:51:51 PM 38.0619 -75.9689 242° Southwest 379 436 18,600 -1,525 Descending Washington Center
Sat 05:52:51 PM 38.0158 -76.0819 243° Southwest 373 429 17,200 -1,289 Descending Washington Center
Sat 05:53:52 PM 37.9736 -76.1872 243° Southwest 359 413 16,000 -1,377 Descending Washington Center
Sat 05:54:53 PM 37.9272 -76.2947 241° Southwest 352 405 14,400 -1,613 Descending Washington Center
Sat 05:55:51 PM 37.8847 -76.3994 243° Southwest 340 391 12,800 -1,587 Descending Washington Center
Sat 05:56:54 PM 37.8444 -76.4964 242° Southwest 334 384 11,200 -1,350 Descending Washington Center
Sat 05:57:51 PM 37.8061 -76.5853 241° Southwest 315 362 10,100 -974 Descending Washington Center
Sat 05:58:51 PM 37.7678 -76.6742 241° Southwest 302 348 9,300 -1,131 Descending Washington Center
Sat 05:59:53 PM 37.7317 -76.7603 242° Southwest 292 336 7,800 -1,600 Descending Washington Center
Sat 06:00:51 PM 37.6975 -76.8436 243° Southwest 280 322 6,100 -1,627 Descending Washington Center
Sat 06:01:51 PM 37.6653 -76.9192 242° Southwest 265 305 4,600 -1,289 Descending Washington Center
Sat 06:02:52 PM 37.6375 -76.9869 243° Southwest 251 289 3,500 -787 Descending Washington Center
Sat 06:03:53 PM 37.6031 -77.0675 242° Southwest 251 289 3,000 -492 Descending Washington Center

Login

Don't have an account? Register now (free) for customized features, flight alerts, and more!